createdAt,value
2018-05-21T08:00:38.355Z,3.00
2018-05-21T08:03:05.784Z,3.37
2018-05-21T08:05:33.147Z,3.20
2018-05-21T08:08:00.497Z,3.53
2018-05-21T08:10:27.878Z,2.93
2018-05-21T08:12:55.248Z,3.70
2018-05-21T08:15:22.624Z,3.00
2018-05-21T08:17:50.051Z,3.23
2018-05-21T08:20:17.414Z,3.70
2018-05-21T08:22:44.760Z,3.37
2018-05-21T08:25:12.211Z,3.60
2018-05-21T08:27:39.608Z,3.37
2018-05-21T08:30:07.194Z,3.20
2018-05-21T08:32:34.700Z,4.00
2018-05-21T08:35:02.116Z,3.20
2018-05-21T08:37:30.902Z,3.50
2018-05-21T08:39:58.247Z,3.23
2018-05-21T08:42:25.639Z,3.10
2018-05-21T08:44:54.498Z,3.60
2018-05-21T08:47:22.259Z,3.40
2018-05-21T08:49:50.641Z,3.37
2018-05-21T08:52:18.363Z,3.10
2018-05-21T08:54:47.097Z,3.50
2018-05-21T08:57:14.523Z,3.27
2018-05-21T08:59:41.904Z,3.50
2018-05-21T09:02:09.393Z,3.20
2018-05-21T09:04:36.840Z,3.00
2018-05-21T09:07:04.263Z,6.33
2018-05-21T09:09:31.681Z,3.60
2018-05-21T09:11:59.070Z,3.30
2018-05-21T09:14:27.362Z,4.07
2018-05-21T09:16:55.049Z,3.47
2018-05-21T09:19:22.444Z,3.50
2018-05-21T09:21:49.810Z,3.00
2018-05-21T09:24:17.193Z,3.40
2018-05-21T09:26:44.598Z,3.67
2018-05-21T09:29:11.993Z,3.60
2018-05-21T09:31:39.395Z,3.63
2018-05-21T09:34:06.744Z,3.50
2018-05-21T09:36:34.171Z,4.00
2018-05-21T09:39:01.549Z,3.40
2018-05-21T09:41:28.920Z,3.73
2018-05-21T09:43:56.361Z,3.87
2018-05-21T09:46:23.894Z,4.07
2018-05-21T09:48:51.312Z,3.67
2018-05-21T09:51:18.691Z,3.77
2018-05-21T09:53:46.060Z,3.73
2018-05-21T09:56:13.463Z,3.63
2018-05-21T09:58:40.872Z,3.80
2018-05-21T10:01:08.299Z,3.97
2018-05-21T10:03:35.670Z,3.60
2018-05-21T10:06:03.141Z,3.93
2018-05-21T10:08:30.544Z,4.10
2018-05-21T10:10:57.941Z,4.50
2018-05-21T10:13:25.344Z,3.77
2018-05-21T10:15:52.820Z,3.90
2018-05-21T10:18:20.354Z,3.80
2018-05-21T10:20:47.748Z,4.07
2018-05-21T10:23:15.168Z,3.60
2018-05-21T10:25:42.598Z,4.03
2018-05-21T10:28:09.976Z,4.20
2018-05-21T10:30:37.397Z,4.10
2018-05-21T10:33:04.780Z,3.80
2018-05-21T10:35:32.195Z,4.73
2018-05-21T10:37:59.603Z,4.13
2018-05-21T10:40:27.066Z,4.30
2018-05-21T10:42:54.487Z,3.80
2018-05-21T10:45:21.970Z,4.10
2018-05-21T10:47:49.334Z,4.10
2018-05-21T10:50:16.741Z,3.90
2018-05-21T10:52:44.122Z,4.20
2018-05-21T10:55:11.498Z,4.30
2018-05-21T10:57:38.979Z,3.90
2018-05-21T11:00:06.331Z,4.17
2018-05-21T11:02:33.798Z,3.80
2018-05-21T11:05:01.221Z,3.73
2018-05-21T11:07:28.577Z,3.73
2018-05-21T11:09:56.011Z,3.73
2018-05-21T11:12:23.370Z,3.40
2018-05-21T11:14:50.846Z,3.40
2018-05-21T11:17:18.223Z,3.30
2018-05-21T11:19:45.615Z,3.53
2018-05-21T11:22:12.994Z,3.20
2018-05-21T11:24:40.415Z,3.50
2018-05-21T11:27:07.909Z,3.20
2018-05-21T11:29:35.316Z,3.33
2018-05-21T11:32:02.862Z,3.20
2018-05-21T11:34:30.164Z,3.60
2018-05-21T11:36:57.616Z,3.10
2018-05-21T11:39:25.180Z,2.87
2018-05-21T11:41:52.601Z,2.80
2018-05-21T11:44:20.060Z,3.00
2018-05-21T11:46:47.414Z,3.40
2018-05-21T11:49:14.780Z,3.17
2018-05-21T11:51:42.192Z,3.60
2018-05-21T11:54:09.590Z,3.50
2018-05-21T11:56:37.041Z,3.37
2018-05-21T11:59:04.419Z,2.90
2018-05-21T12:01:31.847Z,3.00
2018-05-21T12:03:59.241Z,3.13
2018-05-21T12:06:26.593Z,3.20
2018-05-21T12:08:53.959Z,3.10
2018-05-21T12:11:21.348Z,3.30
2018-05-21T12:13:48.737Z,3.30
2018-05-21T12:16:16.168Z,3.20
2018-05-21T12:18:43.591Z,2.93
2018-05-21T12:21:11.003Z,2.85
2018-05-21T12:23:38.381Z,2.80
2018-05-21T12:26:05.795Z,3.00
2018-05-21T12:28:33.168Z,2.80
2018-05-21T12:31:00.575Z,3.10
2018-05-21T12:33:27.917Z,2.90
2018-05-21T12:35:55.293Z,2.90
2018-05-21T12:38:22.745Z,2.30
2018-05-21T12:40:50.097Z,2.93
2018-05-21T12:43:17.636Z,3.10
2018-05-21T12:45:46.524Z,2.87
2018-05-21T12:48:14.022Z,3.20
2018-05-21T12:50:41.435Z,2.70
2018-05-21T12:53:08.835Z,2.70
2018-05-21T12:55:36.248Z,3.10
2018-05-21T12:58:03.640Z,2.50
2018-05-21T13:00:31.161Z,2.73
2018-05-21T13:02:58.588Z,2.60
2018-05-21T13:05:25.969Z,2.90
2018-05-21T13:07:53.469Z,2.60
2018-05-21T13:10:20.881Z,2.60
2018-05-21T13:12:48.296Z,2.90
2018-05-21T13:15:15.682Z,2.57
2018-05-21T13:17:43.180Z,2.97
2018-05-21T13:20:10.624Z,3.27
2018-05-21T13:22:38.060Z,2.80
2018-05-21T13:25:05.439Z,2.37
2018-05-21T13:27:32.822Z,2.58
2018-05-21T13:30:01.345Z,2.80
2018-05-21T13:32:28.820Z,2.90
2018-05-21T13:34:56.200Z,2.80
2018-05-21T13:37:23.547Z,2.60
2018-05-21T13:39:50.949Z,2.50
2018-05-21T13:42:18.363Z,2.33
2018-05-21T13:44:45.820Z,3.00
2018-05-21T13:47:13.215Z,3.37
2018-05-21T13:49:40.611Z,3.10
2018-05-21T13:52:08.056Z,2.80
2018-05-21T13:54:35.401Z,2.85
2018-05-21T13:57:02.745Z,2.90
2018-05-21T13:59:30.157Z,2.80
2018-05-21T14:01:57.534Z,2.55
2018-05-21T14:04:24.892Z,2.83
2018-05-21T14:06:52.287Z,2.55
2018-05-21T14:09:19.740Z,2.50
2018-05-21T14:11:47.140Z,2.85
2018-05-21T14:14:14.478Z,2.65
2018-05-21T14:16:41.888Z,2.95
2018-05-21T14:19:09.379Z,2.33
2018-05-21T14:21:36.790Z,2.30
2018-05-21T14:24:04.191Z,2.70
2018-05-21T14:26:31.588Z,2.60
2018-05-21T14:28:58.963Z,2.37
2018-05-21T14:31:26.347Z,2.85
2018-05-21T14:33:53.734Z,2.55
2018-05-21T14:36:21.103Z,2.97
2018-05-21T14:38:48.536Z,2.58
2018-05-21T14:41:15.954Z,3.15
2018-05-21T14:43:43.580Z,3.00
2018-05-21T14:46:10.984Z,2.70
2018-05-21T14:48:38.395Z,2.45
2018-05-21T14:51:05.752Z,2.80
2018-05-21T14:53:33.134Z,2.37
2018-05-21T14:56:00.513Z,2.53
2018-05-21T14:58:27.961Z,2.70
2018-05-21T15:00:55.456Z,2.22
2018-05-21T15:03:22.808Z,2.35
2018-05-21T15:05:50.227Z,2.90
2018-05-21T15:08:17.657Z,3.20
2018-05-21T15:10:45.034Z,2.97
2018-05-21T15:13:12.463Z,3.03
2018-05-21T15:15:39.842Z,2.62
2018-05-21T15:18:07.198Z,2.78
2018-05-21T15:20:34.540Z,2.90
2018-05-21T15:23:01.916Z,2.80
2018-05-21T15:25:29.324Z,2.87
2018-05-21T15:27:56.667Z,2.92
2018-05-21T15:30:24.014Z,3.30
2018-05-21T15:32:51.443Z,3.30
2018-05-21T15:35:18.824Z,3.10
2018-05-21T15:37:46.298Z,2.90
2018-05-21T15:40:13.689Z,2.60
2018-05-21T15:42:41.137Z,3.10
2018-05-21T15:45:08.516Z,3.10
2018-05-21T15:47:35.896Z,3.40
2018-05-21T15:50:03.304Z,2.80
2018-05-21T15:52:30.809Z,2.75
2018-05-21T15:54:58.171Z,3.08
2018-05-21T15:57:25.593Z,3.35
2018-05-21T15:59:53.038Z,2.70
2018-05-21T16:02:20.404Z,2.78
2018-05-21T16:04:47.907Z,2.85
2018-05-21T16:07:15.342Z,3.50
2018-05-21T16:09:42.747Z,3.00
2018-05-21T16:12:10.275Z,2.67
2018-05-21T16:14:37.661Z,2.87
2018-05-21T16:17:05.078Z,2.92
2018-05-21T16:19:32.469Z,3.12
2018-05-21T16:22:00.112Z,2.80
2018-05-21T16:24:27.496Z,2.85
2018-05-21T16:26:54.913Z,2.78
2018-05-21T16:29:22.271Z,2.97
2018-05-21T16:31:49.702Z,3.20
2018-05-21T16:34:17.200Z,2.87
2018-05-21T16:36:44.887Z,2.70
2018-05-21T16:39:12.301Z,2.80
2018-05-21T16:41:39.651Z,3.20
2018-05-21T16:44:07.060Z,2.73
2018-05-21T16:46:34.403Z,3.00
2018-05-21T16:49:02.024Z,3.50
2018-05-21T16:51:29.648Z,3.33
2018-05-21T16:53:57.061Z,2.93
2018-05-21T16:56:24.408Z,3.50
2018-05-21T16:58:51.819Z,3.00
2018-05-21T17:01:19.174Z,3.10
2018-05-21T17:03:46.560Z,2.83
2018-05-21T17:06:13.981Z,3.17
2018-05-21T17:08:41.488Z,4.10
2018-05-21T17:11:08.845Z,3.57
2018-05-21T17:13:36.194Z,3.78
2018-05-21T17:16:03.600Z,5.12
2018-05-21T17:18:30.987Z,3.95
2018-05-21T17:20:58.425Z,3.70
2018-05-21T17:23:25.775Z,3.40
2018-05-21T17:25:53.164Z,3.28
2018-05-21T17:28:20.602Z,3.00
2018-05-21T17:30:48.036Z,3.27
2018-05-21T17:33:18.760Z,3.17
2018-05-21T17:35:46.232Z,3.40
2018-05-21T17:38:13.639Z,3.40
2018-05-21T17:40:41.029Z,3.07
2018-05-21T17:43:08.407Z,3.20
2018-05-21T17:45:35.901Z,2.83
2018-05-21T17:48:03.252Z,3.00
2018-05-21T17:50:30.645Z,3.07
2018-05-21T17:52:58.115Z,3.20
2018-05-21T17:55:25.500Z,3.57
2018-05-21T17:57:53.034Z,3.33
2018-05-21T18:00:20.444Z,3.30
2018-05-21T18:02:47.856Z,3.00
2018-05-21T18:05:15.245Z,3.03
2018-05-21T18:07:45.295Z,2.90
2018-05-21T18:10:13.092Z,3.07
2018-05-21T18:12:40.516Z,3.13
2018-05-21T18:15:07.970Z,3.10
2018-05-21T18:17:35.511Z,3.10
2018-05-21T18:20:06.446Z,3.20
2018-05-21T18:22:33.863Z,3.03
2018-05-21T18:25:01.259Z,3.50
2018-05-21T18:27:28.706Z,3.90
2018-05-21T18:29:56.123Z,3.17
2018-05-21T18:32:23.461Z,3.20
2018-05-21T18:34:50.988Z,3.93
2018-05-21T18:37:18.399Z,4.03
2018-05-21T18:39:45.802Z,3.70
2018-05-21T18:42:13.430Z,4.07
2018-05-21T18:44:40.826Z,4.20
2018-05-21T18:47:08.249Z,3.83
2018-05-21T18:49:35.703Z,4.17
2018-05-21T18:52:03.096Z,3.40
2018-05-21T18:54:30.617Z,4.00
2018-05-21T18:56:57.988Z,3.73
2018-05-21T18:59:25.476Z,3.80
2018-05-21T19:01:52.947Z,4.00
2018-05-21T19:04:20.458Z,3.73
2018-05-21T19:06:47.827Z,3.77
2018-05-21T19:09:15.245Z,3.90
2018-05-21T19:11:42.606Z,3.90
2018-05-21T19:14:09.993Z,3.80
2018-05-21T19:16:37.455Z,3.53
2018-05-21T19:19:04.818Z,3.77
2018-05-21T19:21:32.828Z,4.33
2018-05-21T19:24:00.358Z,3.97
2018-05-21T19:26:27.793Z,4.00
2018-05-21T19:28:55.165Z,4.47
2018-05-21T19:31:22.561Z,4.00
2018-05-21T19:33:49.967Z,4.87
2018-05-21T19:36:17.489Z,4.40
2018-05-21T19:38:44.948Z,4.10
2018-05-21T19:41:12.439Z,4.37
2018-05-21T19:43:39.899Z,3.83
2018-05-21T19:46:07.304Z,3.83
2018-05-21T19:48:34.656Z,4.03
2018-05-21T19:51:02.072Z,4.53
2018-05-21T19:53:29.587Z,4.60
2018-05-21T19:55:57.147Z,3.93
2018-05-21T19:58:24.707Z,4.10
2018-05-21T20:00:52.103Z,4.50
2018-05-21T20:03:19.468Z,4.57
2018-05-21T20:05:47.078Z,4.47
2018-05-21T20:08:14.475Z,4.53
2018-05-21T20:10:41.892Z,4.90
2018-05-21T20:13:09.303Z,5.40
2018-05-21T20:15:36.741Z,5.00
2018-05-21T20:18:04.106Z,4.97
2018-05-21T20:20:37.350Z,4.90
2018-05-21T20:23:04.889Z,4.30
2018-05-21T20:25:32.366Z,4.10
2018-05-21T20:27:59.860Z,4.20
2018-05-21T20:30:27.235Z,4.83
2018-05-21T20:32:54.682Z,4.60
2018-05-21T20:35:22.196Z,4.73
2018-05-21T20:37:49.687Z,3.90
2018-05-21T20:40:17.086Z,4.43
2018-05-21T20:42:44.453Z,5.00
2018-05-21T20:45:11.942Z,4.30
2018-05-21T20:47:39.353Z,4.27
2018-05-21T20:50:06.771Z,4.00
2018-05-21T20:52:34.153Z,3.87
2018-05-21T20:55:01.590Z,4.57
2018-05-21T20:57:29.029Z,4.60
2018-05-21T20:59:56.430Z,4.33
2018-05-21T21:02:23.778Z,4.90
2018-05-21T21:04:51.130Z,6.57
2018-05-21T21:07:18.649Z,4.90
2018-05-21T21:09:46.060Z,4.90
2018-05-21T21:12:13.459Z,4.80
2018-05-21T21:14:40.803Z,4.73
2018-05-21T21:17:08.168Z,5.07
2018-05-21T21:19:35.585Z,4.50
2018-05-21T21:22:02.979Z,5.63
2018-05-21T21:24:30.415Z,4.90
2018-05-21T21:26:57.796Z,5.07
2018-05-21T21:29:25.252Z,4.30
2018-05-21T21:31:52.640Z,4.43
2018-05-21T21:34:20.041Z,4.00
2018-05-21T21:36:47.410Z,4.10
2018-05-21T21:39:14.791Z,4.50
2018-05-21T21:41:42.239Z,4.70
2018-05-21T21:44:09.629Z,4.17
2018-05-21T21:46:37.021Z,4.33
2018-05-21T21:49:04.396Z,4.43
2018-05-21T21:51:31.860Z,4.00
2018-05-21T21:53:59.245Z,4.67
2018-05-21T21:56:26.664Z,4.37
2018-05-21T21:58:54.042Z,4.03
2018-05-21T22:01:21.472Z,4.40
2018-05-21T22:03:48.868Z,4.07
2018-05-21T22:06:16.331Z,4.00
2018-05-21T22:08:43.750Z,4.30
2018-05-21T22:11:11.124Z,4.57
2018-05-21T22:13:38.508Z,4.80
2018-05-21T22:16:05.924Z,4.40
2018-05-21T22:18:33.361Z,4.00
2018-05-21T22:21:00.785Z,4.03
2018-05-21T22:23:28.201Z,4.43
2018-05-21T22:25:55.639Z,4.40
2018-05-21T22:28:23.101Z,4.43
2018-05-21T22:30:50.480Z,4.40
2018-05-21T22:33:17.985Z,4.00
2018-05-21T22:35:45.405Z,4.50
2018-05-21T22:38:12.751Z,4.77
2018-05-21T22:40:40.177Z,4.50
2018-05-21T22:43:07.556Z,4.20
2018-05-21T22:45:34.987Z,4.23
2018-05-21T22:48:02.349Z,4.77
2018-05-21T22:50:29.696Z,4.60
2018-05-21T22:52:57.120Z,4.63
2018-05-21T22:55:24.501Z,5.33
2018-05-21T22:57:51.911Z,4.80
2018-05-21T23:00:19.268Z,5.40
2018-05-21T23:02:46.680Z,4.97
2018-05-21T23:05:14.089Z,4.40
2018-05-21T23:07:41.670Z,5.33
2018-05-21T23:10:09.068Z,4.73
2018-05-21T23:12:36.414Z,5.00
2018-05-21T23:15:03.968Z,5.10
2018-05-21T23:17:31.365Z,4.90
2018-05-21T23:19:58.756Z,5.27
2018-05-21T23:22:32.055Z,4.83
2018-05-21T23:24:59.532Z,4.67
2018-05-21T23:27:26.924Z,5.20
2018-05-21T23:29:54.331Z,5.03
2018-05-21T23:32:21.758Z,5.03
2018-05-21T23:34:49.150Z,5.00
2018-05-21T23:37:16.590Z,5.07
2018-05-21T23:39:43.969Z,5.20
2018-05-21T23:42:11.416Z,5.10
2018-05-21T23:44:39.241Z,5.53
2018-05-21T23:47:06.640Z,5.50
2018-05-21T23:49:34.072Z,5.13
2018-05-21T23:52:01.431Z,5.20
2018-05-21T23:54:28.813Z,5.20
2018-05-21T23:56:56.188Z,5.37
2018-05-21T23:59:23.545Z,5.50
